WZZ312 EDDG-EDLW
Flight info
| Callsign | WZZ312 |
|---|---|
| Flight time | 0h 14m |
| Altitude | 5000 |
| Route | DOMEG2Z DOMEG DOMEG2A |
| Aircraft | A20N/M-SDE2E3FGHIRWXY/LB1 |
Departure
| Time | 2026-04-14 14:23 |
|---|---|
| Airport | Münster Osnabrück Airport (EDDG) |
Arrival
| Time | 2026-04-14 14:37 |
|---|---|
| Airport | Dortmund Airport (EDLW) |
| Time | Latitude | Longitude | Altitude | Speed | Heading |
|---|---|---|---|---|---|
| 2026-04-14 14:08 | 52.13133 | 7.69222 | 167 ft | 0 kts | 187° |
| 2026-04-14 14:19 | 52.13130 | 7.69215 | 167 ft | 1 kts | 235° |
| 2026-04-14 14:19 | 52.13136 | 7.69201 | 167 ft | 6 kts | 304° |
| 2026-04-14 14:19 | 52.13201 | 7.69211 | 167 ft | 13 kts | 54° |
| 2026-04-14 14:20 | 52.13254 | 7.69319 | 167 ft | 12 kts | 1° |
| 2026-04-14 14:20 | 52.13338 | 7.69273 | 167 ft | 14 kts | 339° |
| 2026-04-14 14:20 | 52.13438 | 7.69241 | 167 ft | 15 kts | 27° |
| 2026-04-14 14:20 | 52.13485 | 7.69398 | 167 ft | 17 kts | 70° |
| 2026-04-14 14:21 | 52.13526 | 7.69598 | 167 ft | 20 kts | 72° |
| 2026-04-14 14:21 | 52.13572 | 7.69820 | 168 ft | 21 kts | 71° |
| 2026-04-14 14:21 | 52.13592 | 7.69916 | 168 ft | 7 kts | 71° |
| 2026-04-14 14:21 | 52.13660 | 7.70030 | 168 ft | 20 kts | 19° |
| 2026-04-14 14:22 | 52.13769 | 7.69925 | 167 ft | 13 kts | 256° |
| 2026-04-14 14:22 | 52.13762 | 7.69895 | 167 ft | 2 kts | 250° |
| 2026-04-14 14:22 | 52.13686 | 7.69527 | 169 ft | 72 kts | 251° |
| 2026-04-14 14:22 | 52.13452 | 7.68421 | 168 ft | 132 kts | 251° |
| 2026-04-14 14:23 | 52.13132 | 7.66893 | 650 ft | 141 kts | 251° |
| 2026-04-14 14:23 | 52.12813 | 7.65399 | 1457 ft | 141 kts | 252° |
| 2026-04-14 14:23 | 52.12477 | 7.63847 | 2113 ft | 151 kts | 252° |
| 2026-04-14 14:23 | 52.12117 | 7.62163 | 2540 ft | 169 kts | 252° |
| 2026-04-14 14:24 | 52.11713 | 7.60263 | 3015 ft | 187 kts | 252° |
| 2026-04-14 14:24 | 52.11274 | 7.58151 | 3470 ft | 209 kts | 252° |
| 2026-04-14 14:24 | 52.10771 | 7.55786 | 3999 ft | 232 kts | 248° |
| 2026-04-14 14:24 | 52.09808 | 7.53546 | 4614 ft | 255 kts | 222° |
| 2026-04-14 14:25 | 52.08229 | 7.52153 | 4932 ft | 264 kts | 195° |
| 2026-04-14 14:25 | 52.06409 | 7.51734 | 5001 ft | 266 kts | 187° |
| 2026-04-14 14:25 | 52.04568 | 7.51499 | 5004 ft | 265 kts | 186° |
| 2026-04-14 14:25 | 52.02726 | 7.51274 | 4993 ft | 265 kts | 186° |
| 2026-04-14 14:26 | 52.00888 | 7.51050 | 4995 ft | 266 kts | 182° |
| 2026-04-14 14:26 | 51.99043 | 7.51273 | 4991 ft | 267 kts | 171° |
| 2026-04-14 14:26 | 51.97208 | 7.51795 | 5001 ft | 268 kts | 172° |
| 2026-04-14 14:26 | 51.95377 | 7.52292 | 4995 ft | 267 kts | 172° |
| 2026-04-14 14:27 | 51.93545 | 7.52781 | 5037 ft | 266 kts | 172° |
| 2026-04-14 14:27 | 51.91742 | 7.53257 | 5190 ft | 268 kts | 172° |
| 2026-04-14 14:27 | 51.89895 | 7.53739 | 5211 ft | 269 kts | 172° |
| 2026-04-14 14:27 | 51.88053 | 7.54224 | 5213 ft | 268 kts | 172° |
| 2026-04-14 14:28 | 51.86217 | 7.54709 | 5208 ft | 267 kts | 172° |
| 2026-04-14 14:28 | 51.84383 | 7.55193 | 5204 ft | 268 kts | 172° |
| 2026-04-14 14:28 | 51.82541 | 7.55677 | 5214 ft | 269 kts | 172° |
| 2026-04-14 14:28 | 51.80698 | 7.56159 | 5213 ft | 268 kts | 172° |
| 2026-04-14 14:29 | 51.78854 | 7.56643 | 5210 ft | 268 kts | 172° |
| 2026-04-14 14:29 | 51.77018 | 7.57126 | 5213 ft | 268 kts | 172° |
| 2026-04-14 14:29 | 51.75177 | 7.57610 | 5212 ft | 268 kts | 172° |
| 2026-04-14 14:29 | 51.73344 | 7.58092 | 5212 ft | 267 kts | 172° |
| 2026-04-14 14:30 | 51.71539 | 7.58825 | 5205 ft | 269 kts | 155° |
| 2026-04-14 14:30 | 51.70073 | 7.60689 | 5202 ft | 272 kts | 134° |
| 2026-04-14 14:30 | 51.68796 | 7.62934 | 5210 ft | 271 kts | 133° |
| 2026-04-14 14:30 | 51.67526 | 7.65180 | 5209 ft | 272 kts | 133° |
| 2026-04-14 14:31 | 51.66249 | 7.67439 | 5214 ft | 272 kts | 133° |
| 2026-04-14 14:31 | 51.64978 | 7.69686 | 5069 ft | 271 kts | 133° |
| 2026-04-14 14:31 | 51.63753 | 7.71983 | 4769 ft | 270 kts | 123° |
| 2026-04-14 14:31 | 51.63085 | 7.74784 | 4412 ft | 269 kts | 104° |
| 2026-04-14 14:32 | 51.62650 | 7.77717 | 4074 ft | 269 kts | 103° |
| 2026-04-14 14:32 | 51.62217 | 7.80628 | 3761 ft | 267 kts | 103° |
| 2026-04-14 14:32 | 51.61731 | 7.83508 | 3432 ft | 266 kts | 113° |
| 2026-04-14 14:32 | 51.60647 | 7.85870 | 3119 ft | 263 kts | 144° |
| 2026-04-14 14:33 | 51.59026 | 7.86802 | 3002 ft | 240 kts | 183° |
| 2026-04-14 14:33 | 51.57586 | 7.86044 | 2981 ft | 215 kts | 224° |
| 2026-04-14 14:33 | 51.56904 | 7.84144 | 3004 ft | 188 kts | 262° |
| 2026-04-14 14:33 | 51.56751 | 7.82158 | 2988 ft | 172 kts | 265° |
| 2026-04-14 14:34 | 51.56485 | 7.78513 | 2597 ft | 156 kts | 263° |
| 2026-04-14 14:34 | 51.56329 | 7.76848 | 2429 ft | 146 kts | 262° |
| 2026-04-14 14:34 | 51.56161 | 7.75313 | 2219 ft | 135 kts | 261° |
| 2026-04-14 14:35 | 51.55970 | 7.73813 | 2044 ft | 141 kts | 258° |
| 2026-04-14 14:35 | 51.55674 | 7.72375 | 1874 ft | 139 kts | 249° |
| 2026-04-14 14:35 | 51.55248 | 7.70966 | 1703 ft | 143 kts | 244° |
| 2026-04-14 14:35 | 51.54769 | 7.69594 | 1482 ft | 136 kts | 242° |
| 2026-04-14 14:36 | 51.54308 | 7.68272 | 1301 ft | 140 kts | 242° |
| 2026-04-14 14:36 | 51.53828 | 7.66912 | 1098 ft | 140 kts | 242° |
| 2026-04-14 14:36 | 51.53347 | 7.65539 | 906 ft | 141 kts | 241° |
| 2026-04-14 14:36 | 51.52868 | 7.64166 | 691 ft | 142 kts | 241° |
| 2026-04-14 14:37 | 51.52384 | 7.62790 | 489 ft | 139 kts | 240° |
| 2026-04-14 14:37 | 51.51932 | 7.61507 | 414 ft | 109 kts | 240° |
| 2026-04-14 14:37 | 51.51665 | 7.60741 | 409 ft | 53 kts | 241° |
| 2026-04-14 14:37 | 51.51511 | 7.60316 | 413 ft | 39 kts | 239° |
| 2026-04-14 14:38 | 51.51425 | 7.60248 | 412 ft | 7 kts | 144° |
| 2026-04-14 14:38 | 51.51375 | 7.60304 | 416 ft | 10 kts | 140° |
| 2026-04-14 14:38 | 51.51369 | 7.60419 | 414 ft | 14 kts | 67° |
| 2026-04-14 14:38 | 51.51425 | 7.60582 | 420 ft | 19 kts | 60° |
| 2026-04-14 14:39 | 51.51498 | 7.60785 | 417 ft | 22 kts | 59° |
| 2026-04-14 14:39 | 51.51566 | 7.60989 | 425 ft | 20 kts | 63° |
| 2026-04-14 14:39 | 51.51628 | 7.61192 | 426 ft | 21 kts | 63° |
| 2026-04-14 14:39 | 51.51672 | 7.61347 | 427 ft | 7 kts | 94° |
| 2026-04-14 14:40 | 51.51639 | 7.61389 | 430 ft | 7 kts | 152° |
| 2026-04-14 14:40 | 51.51637 | 7.61391 | 430 ft | 0 kts | 152° |
| 2026-04-14 14:40 | 51.51619 | 7.61406 | 429 ft | 0 kts | 151° |